Anwaar Alnaser — 5AXD — position and weather

sailwx.info

Track history (hours):
 
Tides and Currents Weather Stations Pressure Air Temp Water Temp Dewpoint Dewpoint Depression Visibility Wind Speed Wind Dir Waves Ship Positions

Anwaar Alnaser

Last reported at 2014-Aug-31 18:30 UTC. Time now 2014-Sep-03 02:13 UTC.
Position N 32°48' E 012°43'.

Length 165 m; draft 7.7 m.

Type: Ship (hazmat cat D). MMSI: 642122018.

Date/timePositionNaut miles runAvg speedWind from/ knotsBaromVisibWave heightAir tempDewpointWater temp
2014-Aug-31 18:30N 32°48' E 012°43'0 0.0
2014-Aug-31 16:15N 32°48' E 012°43'0 0.0
2014-Aug-31 15:33N 32°48' E 012°43'0 0.0
2014-Aug-31 14:33N 32°48' E 012°43'0 0.0
2014-Aug-31 13:20N 32°48' E 012°43'0 0.0
2014-Aug-31 12:32N 32°48' E 012°43'2 0.4
2014-Aug-31 08:19N 32°49' E 012°41'0 0.1
2014-Aug-31 07:28N 32°49' E 012°41'0 0.0
2014-Aug-31 06:31N 32°49' E 012°41'0 0.0
2014-Aug-30 14:27N 32°49' E 012°41'0 0.0
2014-Aug-30 13:33N 32°49' E 012°41'0 0.0
2014-Aug-30 06:03N 32°49' E 012°41'0 0.0
2014-Aug-30 05:33N 32°49' E 012°41'0 0.0
2014-Aug-29 17:09N 32°49' E 012°41'0 0.0
2014-Aug-29 16:33N 32°49' E 012°41'0 0.0
2014-Aug-29 15:33N 32°49' E 012°41'16512.6
2014-Aug-29 02:28N 32°44' E 015°58'1213.3
2014-Aug-29 01:33N 32°42' E 016°12'2913.1
2014-Aug-28 23:19N 32°37' E 016°46'1013.2
2014-Aug-28 22:33N 32°35' E 016°58'57 1.4
2014-Aug-27 07:27N 32°25' E 018°04'1914.0
2014-Aug-27 06:05N 32°28' E 017°41'713.9
2014-Aug-27 05:33N 32°29' E 017°33'2914.1
2014-Aug-27 03:31N 32°34' E 016°59'1313.9
2014-Aug-27 02:33N 32°37' E 016°44'1413.9
2014-Aug-27 01:33N 32°39' E 016°27'1413.7
2014-Aug-27 00:33N 32°41' E 016°11'1313.5
2014-Aug-26 23:33N 32°44' E 015°56'1313.2
2014-Aug-26 22:33N 32°46' E 015°40'1312.9
2014-Aug-26 21:33N 32°49' E 015°25'1312.6
2014-Aug-26 20:33N 32°51' E 015°10'1312.7
2014-Aug-26 19:33N 32°53' E 014°55'3912.3
2014-Aug-26 16:26N 32°60' E 014°10'1112.4
2014-Aug-26 15:33N 33°02' E 013°57'1312.8
2014-Aug-26 14:33N 33°04' E 013°42'1312.7
2014-Aug-26 13:33N 33°06' E 013°27'1010.4
2014-Aug-26 12:33N 33°01' E 013°16'7 7.3
2014-Aug-26 11:33N 32°54' E 013°12'0 0.0
2014-Aug-26 10:06N 32°54' E 013°12'0 0.0
2014-Aug-26 09:06N 32°54' E 013°12'  
Track history (hours):
 
Tides and Currents Weather Stations Pressure Air Temp Water Temp Dewpoint Dewpoint Depression Visibility Wind Speed Wind Dir Waves Ship Positions

Anwaar Alnaser

Last reported at 2014-Aug-31 18:30 UTC. Time now 2014-Sep-03 02:13 UTC.
Position N 32°48' E 012°43'.

Length 165 m; draft 7.7 m.

Type: Ship (hazmat cat D). MMSI: 642122018.

Date/timePositionNaut miles runAvg speedWind from/ knotsBaromVisibWave heightAir tempDewpointWater temp
2014-Aug-31 18:30N 32°48' E 012°43'0 0.0
2014-Aug-31 16:15N 32°48' E 012°43'0 0.0
2014-Aug-31 15:33N 32°48' E 012°43'0 0.0
2014-Aug-31 14:33N 32°48' E 012°43'0 0.0
2014-Aug-31 13:20N 32°48' E 012°43'0 0.0
2014-Aug-31 12:32N 32°48' E 012°43'2 0.4
2014-Aug-31 08:19N 32°49' E 012°41'0 0.1
2014-Aug-31 07:28N 32°49' E 012°41'0 0.0
2014-Aug-31 06:31N 32°49' E 012°41'0 0.0
2014-Aug-30 14:27N 32°49' E 012°41'0 0.0
2014-Aug-30 13:33N 32°49' E 012°41'0 0.0
2014-Aug-30 06:03N 32°49' E 012°41'0 0.0
2014-Aug-30 05:33N 32°49' E 012°41'0 0.0
2014-Aug-29 17:09N 32°49' E 012°41'0 0.0
2014-Aug-29 16:33N 32°49' E 012°41'0 0.0
2014-Aug-29 15:33N 32°49' E 012°41'16512.6
2014-Aug-29 02:28N 32°44' E 015°58'1213.3
2014-Aug-29 01:33N 32°42' E 016°12'2913.1
2014-Aug-28 23:19N 32°37' E 016°46'1013.2
2014-Aug-28 22:33N 32°35' E 016°58'57 1.4
2014-Aug-27 07:27N 32°25' E 018°04'1914.0
2014-Aug-27 06:05N 32°28' E 017°41'713.9
2014-Aug-27 05:33N 32°29' E 017°33'2914.1
2014-Aug-27 03:31N 32°34' E 016°59'1313.9
2014-Aug-27 02:33N 32°37' E 016°44'1413.9
2014-Aug-27 01:33N 32°39' E 016°27'1413.7
2014-Aug-27 00:33N 32°41' E 016°11'1313.5
2014-Aug-26 23:33N 32°44' E 015°56'1313.2
2014-Aug-26 22:33N 32°46' E 015°40'1312.9
2014-Aug-26 21:33N 32°49' E 015°25'1312.6
2014-Aug-26 20:33N 32°51' E 015°10'1312.7
2014-Aug-26 19:33N 32°53' E 014°55'3912.3
2014-Aug-26 16:26N 32°60' E 014°10'1112.4
2014-Aug-26 15:33N 33°02' E 013°57'1312.8
2014-Aug-26 14:33N 33°04' E 013°42'1312.7
2014-Aug-26 13:33N 33°06' E 013°27'1010.4
2014-Aug-26 12:33N 33°01' E 013°16'7 7.3
2014-Aug-26 11:33N 32°54' E 013°12'0 0.0
2014-Aug-26 10:06N 32°54' E 013°12'0 0.0
2014-Aug-26 09:06N 32°54' E 013°12'  

Dump ship's entire track history